ADDS METAR Data INFO
IDs: Format: Raw Decoded Include TAF

Data at: 2015 UTC 18 Jul 2018

KTVR 182006Z AUTO 00000KT 10SM FEW044 26/26 A2994 RMK AO2 LTG DSNT N AND SE AND S RAE03 P0002 T02610261
KTVR 181948Z AUTO 31003KT 10SM VCTS -RA BKN037 BKN046 BKN080 25/25 A2995 RMK AO2 LTG DSNT ALQDS TSB01E47 SLP146 P0009 T02500250
KTVR 181947Z AUTO 32003KT 10SM VCTS -RA BKN037 BKN046 OVC090 24/24 A2995 RMK AO2 LTG DSNT ALQDS TSB01E47 P0009
KTVR 181940Z AUTO 29003KT 8SM -TSRA BKN029 BKN048 OVC090 24/24 A2995 RMK AO2 LTG DSNT ALQDS TSB01 P0008 T02440244
KTVR 181932Z AUTO VRB05KT 2SM +TSRA BR BKN025 BKN048 OVC070 24/23 A2995 RMK AO2 LTG DSNT SE AND S TSB01 PRESFR P0006 T02390233
KTVR 181909Z AUTO 33008G20KT 1/2SM +TSRA FG BKN028 BKN050 OVC075 25/25 A2998 RMK AO2 LTG DSNT S AND NW TSB01 PRESRR P0002 T02500250
KTVR 181901Z AUTO 29006KT 1 1/4SM +TSRA BR SCT035 BKN050 OVC070 26/26 A2996 RMK AO2 LTG DSNT N AND S AND NW TSB01 P0001 T02610261
KTVR 181853Z AUTO VRB05KT 2SM RA BR SCT035 BKN050 BKN060 26/24 A2996 RMK AO2 VIS 1 1/4V5 LTG DSNT N AND NW RAB45 SLP150 P0001 T02560244
KTVR 181753Z AUTO VRB03KT 10SM SCT029 SCT035 32/28 A2997 RMK AO2 SLP155 T03220278 10322 20250 58008
KTVR 181710Z AUTO VRB03KT 10SM FEW024 31/27 A2998 RMK AO2 T03110267
KTVR 181703Z AUTO 00000KT 10SM BKN023 31/27 A2998 RMK AO2 T03110272
KTVR 181653Z AUTO 00000KT 10SM SCT023 32/27 A2998 RMK AO2 SLP158 T03170272
KTVR 181639Z AUTO 00000KT 10SM BKN022 31/27 A2998 RMK AO2 T03110267
KTVR 181553Z AUTO 00000KT 10SM FEW018 31/27 A2999 RMK AO2 SLP161 T03060267
KTVR 181453Z AUTO VRB03KT 10SM CLR 29/27 A2999 RMK AO2 SLP162 T02890267 58001
KTVR 181353Z AUTO 00000KT 9SM CLR 28/27 A3000 RMK AO2 SLP163 T02830267
KTVR 181253Z AUTO 00000KT 7SM CLR 26/26 A3000 RMK AO2 SLP163 T02560256
KTVR 181153Z AUTO 00000KT 5SM BR SCT070 25/25 A3000 RMK AO2 SLP164 70159 T02500250 10256 20244 53008
KTVR 181053Z AUTO 00000KT 6SM BR CLR 24/24 A2999 RMK AO2 SLP160 T02440244
KTVR 180953Z AUTO 00000KT 4SM BR FEW070 24/24 A2998 RMK AO2 SLP158 T02440244
KTVR 180853Z AUTO 00000KT 5SM BR CLR 24/24 A2997 RMK AO2 SLP155 T02440244 55005
KTVR 180753Z AUTO 00000KT 5SM BR BKN070 25/25 A2996 RMK AO2 SLP152 T02500250
KTVR 180653Z AUTO 15003KT 6SM BR CLR 25/25 A2997 RMK AO2 SLP153 T02500250
KTVR 180553Z AUTO 00000KT 5SM BR FEW060 26/26 A2999 RMK AO2 SLP161 T02560256 10272 20256 402940239 58003
KTVR 180453Z AUTO 15003KT 6SM BR SCT090 26/26 A3000 RMK AO2 SLP164 T02560256
KTVR 180353Z AUTO 17004KT 7SM CLR 26/26 A3000 RMK AO2 SLP166 T02610261
KTVR 180253Z AUTO 19003KT 6SM BR FEW120 26/26 A3000 RMK AO2 SLP163 T02610261 51005
KTVR 180153Z AUTO 00000KT 8SM CLR 27/27 A2999 RMK AO2 SLP162 T02670267
KTVR 180053Z AUTO 19004KT 9SM SCT100 27/27 A2999 RMK AO2 SLP160 T02670267
KTVR 172353Z AUTO 20003KT 10SM FEW110 27/27 A2998 RMK AO2 SLP158 60000 T02720267 10294 20256 55006
KTVR 172253Z AUTO 20003KT 10SM CLR 28/26 A2998 RMK AO2 SLP157 T02780261
KTVR 172153Z AUTO VRB04KT 10SM CLR 28/26 A2999 RMK AO2 SLP161 T02830256
KTVR 172053Z AUTO VRB03KT 10SM CLR 29/26 A3000 RMK AO2 SLP164 60000 T02890261 58022
KTVR 171953Z AUTO VRB06G14KT 10SM SCT011 SCT055 BKN070 27/26 A3002 RMK AO2 RAB1854E27 SLP172 P0000 T02720261
KTVR 171929Z AUTO VRB05KT 10SM SCT011 BKN065 OVC080 27/26 A3004 RMK AO2 RAB1854E27 P0000 T02670261
KTVR 171919Z AUTO VRB04KT 7SM -RA SCT012 BKN017 BKN065 27/27 A3004 RMK AO2 RAB1854 P0000 T02720267
KTVR 171853Z AUTO 20004KT 10SM BKN012 OVC065 26/26 A3006 RMK AO2 SLP183 T02610261
KTVR 171846Z AUTO VRB04KT 10SM BKN015 OVC070 26/26 A3006 RMK AO2 T02610261
KTVR 171753Z AUTO VRB03KT 10SM BKN065 26/26 A3006 RMK AO2 RAE37 SLP186 P0008 60159 T02560256 10256 20244 58003
KTVR 171733Z AUTO VRB03KT 4SM -RA BR FEW045 OVC060 24/24 A3007 RMK AO2 P0006 T02440244
KTVR 171723Z AUTO 20005KT 1 3/4SM +RA BR FEW045 OVC060 24/24 A3007 RMK AO2 LTG DSNT NW P0004 T02440244
KTVR 171653Z AUTO VRB04KT 9SM -RA SCT060 BKN075 OVC095 24/24 A3007 RMK AO2 SLP188 P0029 T02440244
KTVR 171626Z AUTO VRB04KT 9SM -RA FEW040 BKN060 OVC075 24/24 A3007 RMK AO2 P0019 T02440244
KTVR 171619Z AUTO VRB04KT 2SM -RA BR SCT042 BKN060 OVC080 24/24 A3007 RMK AO2 P0015 T02440244
KTVR 171553Z AUTO VRB04KT 3/4SM +RA BR SCT039 BKN060 OVC075 24/24 A3007 RMK AO2 SLP189 P0022 T02440244
KTVR 171540Z AUTO 21004KT 2SM RA BR FEW038 BKN060 OVC080 25/25 A3008 RMK AO2 VIS 1 1/2V3 LTG DSNT W P0018 T02500250
KTVR 171518Z AUTO 18004KT 3SM -RA BR SCT050 BKN060 OVC075 25/25 A3007 RMK AO2 LTG DSNT SW AND W P0013 T02500250
KTVR 171502Z AUTO 00000KT 1 1/4SM +RA BR BKN047 BKN060 OVC080 25/25 A3007 RMK AO2 LTG DSNT SW P0005 T02500250
KTVR 171453Z AUTO 00000KT 3/4SM +RA BR BKN047 OVC060 25/25 A3007 RMK AO2 LTG DSNT SW TSE26 SLP186 P0040 60100 T02500250 50006
KTVR 171451Z AUTO 00000KT 3/4SM +RA BR BKN047 OVC065 25/25 A3007 RMK AO2 LTG DSNT SW TSE26 P0039
KTVR 171441Z AUTO 00000KT 1 1/4SM +RA BR BKN044 BKN050 OVC065 25/25 A3007 RMK AO2 TSE26 P0034 T02500250
KTVR 171431Z AUTO 00000KT 2 1/2SM -RA BR SCT048 OVC060 25/25 A3007 RMK AO2 VIS 3/4V5 TSE26 P0029 T02500250
KTVR 171418Z AUTO 19004KT 3SM TSRA BR FEW032 OVC065 25/25 A3006 RMK AO2 P0027 T02500250
KTVR 171411Z AUTO 19005KT 2 1/2SM TSRA BR SCT028 OVC060 25/25 A3006 RMK AO2 P0025 T02500250
KTVR 171402Z AUTO 19004KT 1SM TSRA BR BKN033 BKN065 OVC080 25/25 A3006 RMK AO2 P0015 T02500250 $
KTVR 171353Z AUTO VRB03KT 1/4SM +TSRA FG BKN029 BKN055 OVC075 24/24 A3007 RMK AO2 TSE07B47 SLP187 P0055 T02440244 $
KTVR 171351Z AUTO 00000KT 1/4SM +TSRA FG BKN029 BKN055 OVC075 24/24 A3007 RMK AO2 TSE07B47 P0051 $
KTVR 171313Z AUTO 13003KT 1SM +RA BR BKN040 BKN050 OVC065 24/24 A3005 RMK AO2 TSE07 P0025 T02440244 $
KTVR 171302Z AUTO VRB03KT 1/2SM +TSRA FG BKN040 BKN050 OVC110 25/25 A3005 RMK AO2 P0011 T02500250 $
KTVR 171253Z AUTO 00000KT 1 1/4SM +TSRA BR FEW013 SCT050 OVC090 25/25 A3005 RMK AO2 RAB20 TSB52 SLP181 P0005 T02500250 $
KTVR 171153Z AUTO 00000KT 8SM SCT100 SCT110 25/25 A3003 RMK AO2 SLP173 70033 T02500250 10250 20239 53010 $
KTVR 171053Z AUTO 16003KT 9SM CLR 24/24 A3001 RMK AO2 SLP168 T02440244 $
KTVR 170953Z AUTO 00000KT 8SM CLR 24/24 A3000 RMK AO2 SLP164 T02390239 $
KTVR 170853Z AUTO 00000KT 10SM CLR 24/24 A3000 RMK AO2 SLP163 T02390239 53001 $